createdAt,value
2023-05-25T00:00:29.097Z,12.70
2023-05-25T00:02:56.444Z,12.60
2023-05-25T00:05:27.475Z,12.50
2023-05-25T00:07:55.446Z,12.50
2023-05-25T00:10:24.101Z,12.40
2023-05-25T00:12:51.818Z,12.50
2023-05-25T00:15:19.072Z,12.40
2023-05-25T00:17:49.079Z,12.40
2023-05-25T00:20:16.267Z,12.40
2023-05-25T00:22:45.110Z,12.40
2023-05-25T00:25:12.632Z,12.30
2023-05-25T00:27:39.539Z,12.30
2023-05-25T00:30:07.702Z,12.20
2023-05-25T00:32:34.913Z,12.10
2023-05-25T00:35:01.871Z,12.00
2023-05-25T00:37:28.921Z,12.00
2023-05-25T00:39:55.986Z,12.00
2023-05-25T00:42:24.122Z,12.10
2023-05-25T00:44:51.156Z,12.10
2023-05-25T00:47:18.154Z,12.10
2023-05-25T00:49:45.085Z,12.00
2023-05-25T00:52:13.257Z,12.00
2023-05-25T00:54:40.313Z,11.90
2023-05-25T00:57:08.486Z,11.90
2023-05-25T00:59:47.099Z,12.00
2023-05-25T01:02:17.514Z,11.90
2023-05-25T01:04:49.710Z,11.80
2023-05-25T01:07:23.476Z,11.80
2023-05-25T01:09:58.229Z,11.80
2023-05-25T01:12:28.745Z,11.90
2023-05-25T01:14:56.419Z,11.80
2023-05-25T01:17:23.396Z,11.90
2023-05-25T01:20:05.592Z,11.90
2023-05-25T01:22:58.212Z,11.80
2023-05-25T01:25:37.433Z,11.80
2023-05-25T01:28:09.398Z,11.80
2023-05-25T01:30:39.430Z,11.80
2023-05-25T01:33:07.987Z,11.80
2023-05-25T01:35:36.653Z,11.80
2023-05-25T01:38:03.641Z,11.70
2023-05-25T01:40:30.564Z,11.80
2023-05-25T01:42:57.526Z,11.80
2023-05-25T01:45:24.798Z,11.70
2023-05-25T01:48:07.390Z,11.70
2023-05-25T01:51:00.186Z,11.60
2023-05-25T01:53:38.945Z,11.60
2023-05-25T01:56:09.302Z,11.60
2023-05-25T01:58:45.262Z,11.60
2023-05-25T02:01:15.729Z,11.60
2023-05-25T02:03:43.110Z,11.60
2023-05-25T02:06:10.359Z,11.60
2023-05-25T02:08:37.195Z,11.50
2023-05-25T02:11:04.359Z,11.50
2023-05-25T02:13:31.304Z,11.60
2023-05-25T02:15:58.209Z,11.60
2023-05-25T02:18:25.139Z,11.50
2023-05-25T02:20:52.058Z,11.50
2023-05-25T02:23:19.414Z,11.50
2023-05-25T02:25:46.653Z,11.40
2023-05-25T02:28:14.839Z,11.30
2023-05-25T02:30:41.782Z,11.30
2023-05-25T02:33:08.839Z,11.40
2023-05-25T02:35:35.838Z,11.30
2023-05-25T02:38:02.750Z,11.40
2023-05-25T02:40:29.756Z,11.30
2023-05-25T02:42:56.703Z,11.20
2023-05-25T02:45:23.540Z,11.20
2023-05-25T02:47:50.515Z,11.20
2023-05-25T02:50:17.454Z,11.10
2023-05-25T02:52:44.496Z,11.20
2023-05-25T02:55:13.705Z,11.10
2023-05-25T02:57:41.161Z,11.10
2023-05-25T03:00:08.519Z,11.20
2023-05-25T03:02:35.473Z,11.20
2023-05-25T03:05:04.409Z,11.10
2023-05-25T03:07:31.744Z,11.10
2023-05-25T03:09:59.654Z,11.10
2023-05-25T03:12:26.677Z,11.00
2023-05-25T03:14:53.559Z,11.10
2023-05-25T03:17:20.709Z,11.10
2023-05-25T03:19:47.548Z,11.00
2023-05-25T03:22:14.533Z,11.00
2023-05-25T03:24:45.134Z,10.90
2023-05-25T03:27:12.083Z,10.90
2023-05-25T03:29:38.935Z,10.80
2023-05-25T03:32:06.326Z,10.80
2023-05-25T03:34:34.785Z,10.90
2023-05-25T03:37:02.222Z,10.90
2023-05-25T03:39:29.184Z,10.90
2023-05-25T03:41:56.789Z,11.00
2023-05-25T03:44:24.148Z,10.90
2023-05-25T03:46:51.318Z,10.80
2023-05-25T03:49:18.297Z,10.80
2023-05-25T03:51:45.339Z,10.90
2023-05-25T03:54:12.252Z,10.90
2023-05-25T03:56:39.219Z,10.70
2023-05-25T03:59:06.363Z,10.70
2023-05-25T04:01:33.329Z,10.70
2023-05-25T04:04:00.510Z,10.70
2023-05-25T04:06:30.139Z,10.70
2023-05-25T04:09:07.011Z,10.80
2023-05-25T04:11:33.839Z,10.80
2023-05-25T04:14:00.734Z,10.90
2023-05-25T04:16:27.779Z,10.70
2023-05-25T04:18:55.940Z,10.80
2023-05-25T04:21:23.079Z,10.80
2023-05-25T04:23:49.955Z,10.90
2023-05-25T04:26:17.096Z,10.90
2023-05-25T04:28:44.057Z,10.80
2023-05-25T04:31:12.880Z,10.90
2023-05-25T04:33:40.793Z,11.00
2023-05-25T04:36:11.092Z,11.00
2023-05-25T04:38:38.121Z,11.10
2023-05-25T04:41:06.589Z,11.10
2023-05-25T04:43:33.844Z,11.10
2023-05-25T04:46:01.076Z,11.10
2023-05-25T04:48:34.298Z,11.60
2023-05-25T04:51:04.635Z,12.60
2023-05-25T04:53:32.346Z,13.10
2023-05-25T04:55:59.573Z,13.40
2023-05-25T04:58:26.507Z,13.60
2023-05-25T05:00:53.482Z,14.00
2023-05-25T05:03:20.714Z,14.00
2023-05-25T05:05:47.717Z,14.00
2023-05-25T05:08:14.626Z,14.20
2023-05-25T05:10:41.820Z,14.20
2023-05-25T05:13:08.993Z,14.40
2023-05-25T05:15:35.866Z,14.10
2023-05-25T05:18:02.835Z,14.10
2023-05-25T05:20:30.012Z,14.20
2023-05-25T05:22:57.033Z,14.10
2023-05-25T05:25:23.948Z,14.30
2023-05-25T05:27:51.157Z,14.00
2023-05-25T05:30:17.981Z,14.00
2023-05-25T05:32:46.598Z,14.10
2023-05-25T05:35:13.778Z,14.40
2023-05-25T05:37:40.736Z,14.50
2023-05-25T05:40:09.105Z,14.70
2023-05-25T05:42:36.336Z,14.60
2023-05-25T05:45:03.262Z,14.30
2023-05-25T05:47:30.165Z,14.10
2023-05-25T05:49:57.254Z,14.20
2023-05-25T05:52:24.135Z,14.20
2023-05-25T05:54:51.132Z,14.30
2023-05-25T05:57:17.992Z,14.40
2023-05-25T05:59:44.964Z,14.60
2023-05-25T06:02:12.188Z,14.60
2023-05-25T06:04:39.599Z,14.00
2023-05-25T06:07:06.635Z,13.70
2023-05-25T06:09:33.474Z,14.00
2023-05-25T06:12:00.404Z,14.10
2023-05-25T06:14:28.728Z,14.00
2023-05-25T06:16:55.925Z,14.10
2023-05-25T06:19:22.885Z,13.90
2023-05-25T06:21:49.732Z,13.80
2023-05-25T06:24:16.676Z,13.40
2023-05-25T06:26:43.733Z,13.30
2023-05-25T06:29:10.893Z,13.20
2023-05-25T06:31:37.809Z,13.10
2023-05-25T06:34:04.667Z,13.40
2023-05-25T06:36:32.668Z,13.70
2023-05-25T06:38:59.677Z,13.60
2023-05-25T06:41:26.532Z,13.50
2023-05-25T06:43:53.486Z,13.20
2023-05-25T06:46:21.667Z,13.40
2023-05-25T06:48:48.562Z,13.60
2023-05-25T06:51:15.636Z,13.70
2023-05-25T06:53:42.559Z,13.60
2023-05-25T06:56:09.487Z,14.00
2023-05-25T06:58:36.446Z,14.10
2023-05-25T07:01:03.843Z,14.00
2023-05-25T07:03:30.914Z,14.10
2023-05-25T07:05:58.615Z,14.20
2023-05-25T07:08:25.540Z,14.10
2023-05-25T07:10:52.423Z,14.10
2023-05-25T07:13:19.370Z,14.20
2023-05-25T07:15:47.347Z,14.00
2023-05-25T07:18:14.565Z,14.20
2023-05-25T07:20:42.438Z,14.40
2023-05-25T07:23:10.865Z,14.40
2023-05-25T07:25:41.404Z,14.40
2023-05-25T07:28:08.769Z,14.50
2023-05-25T07:30:35.783Z,14.80
2023-05-25T07:33:02.730Z,14.90
2023-05-25T07:35:29.812Z,14.80
2023-05-25T07:38:01.548Z,15.00
2023-05-25T07:40:28.828Z,15.00
2023-05-25T07:42:55.858Z,15.20
2023-05-25T07:45:23.156Z,15.00
2023-05-25T07:47:50.201Z,15.20
2023-05-25T07:50:17.458Z,15.40
2023-05-25T07:52:44.434Z,15.40
2023-05-25T07:55:11.607Z,15.60
2023-05-25T07:57:38.655Z,15.80
2023-05-25T08:00:08.029Z,15.90
2023-05-25T08:02:35.079Z,15.90
2023-05-25T08:05:05.751Z,15.80
2023-05-25T08:07:33.788Z,15.90
2023-05-25T08:10:00.801Z,16.00
2023-05-25T08:12:46.069Z,16.10
2023-05-25T08:15:14.515Z,16.20
2023-05-25T08:17:41.985Z,16.30
2023-05-25T08:20:10.759Z,16.30
2023-05-25T08:22:38.079Z,16.10
2023-05-25T08:25:06.882Z,15.60
2023-05-25T08:27:35.711Z,15.80
2023-05-25T08:30:06.508Z,16.40
2023-05-25T08:32:33.618Z,16.70
2023-05-25T08:35:02.075Z,17.10
2023-05-25T08:37:29.433Z,16.40
2023-05-25T08:39:56.565Z,16.50
2023-05-25T08:42:24.019Z,16.40
2023-05-25T08:44:51.025Z,16.60
2023-05-25T08:47:20.570Z,17.20
2023-05-25T08:49:50.191Z,17.10
2023-05-25T08:52:23.645Z,16.90
2023-05-25T08:54:53.680Z,16.90
2023-05-25T08:57:40.877Z,17.00
2023-05-25T09:00:11.667Z,16.70
2023-05-25T09:03:13.896Z,16.40
2023-05-25T09:05:41.043Z,17.10
2023-05-25T09:08:09.476Z,17.30
2023-05-25T09:10:37.687Z,17.30
2023-05-25T09:13:19.802Z,17.50
2023-05-25T09:15:49.457Z,17.80
2023-05-25T09:18:16.436Z,18.30
2023-05-25T09:20:46.200Z,18.40
2023-05-25T09:23:15.063Z,17.90
2023-05-25T09:25:42.366Z,18.10
2023-05-25T09:30:39.920Z,17.80
2023-05-25T09:33:11.986Z,17.80
2023-05-25T09:35:41.000Z,17.80
2023-05-25T09:38:08.152Z,17.70
2023-05-25T09:40:36.039Z,18.00
2023-05-25T09:43:04.229Z,18.30
2023-05-25T09:45:31.847Z,18.20
2023-05-25T09:47:59.688Z,18.10
2023-05-25T09:50:30.182Z,18.20
2023-05-25T09:53:00.209Z,18.70
2023-05-25T09:55:40.474Z,19.10
2023-05-25T09:58:18.140Z,18.60
2023-05-25T10:00:46.536Z,18.30
2023-05-25T10:03:15.584Z,18.40
2023-05-25T10:05:42.738Z,18.60
2023-05-25T10:08:11.674Z,18.30
2023-05-25T10:10:40.152Z,18.50
2023-05-25T10:13:09.559Z,18.40
2023-05-25T10:15:39.909Z,18.60
2023-05-25T10:18:07.276Z,18.60
2023-05-25T10:20:35.315Z,18.10
2023-05-25T10:23:15.125Z,18.40
2023-05-25T10:25:47.523Z,18.20
2023-05-25T10:28:20.500Z,18.30
2023-05-25T10:30:49.627Z,18.10
2023-05-25T10:33:17.175Z,18.10
2023-05-25T10:36:01.749Z,17.90
2023-05-25T10:38:33.256Z,18.10
2023-05-25T10:41:00.918Z,17.70
2023-05-25T10:43:28.193Z,18.00
2023-05-25T10:45:57.552Z,17.80
2023-05-25T10:48:35.129Z,17.90
2023-05-25T10:51:02.035Z,18.00
2023-05-25T10:53:28.956Z,18.50
2023-05-25T10:56:02.510Z,18.80
2023-05-25T10:58:31.482Z,18.80
2023-05-25T11:01:03.266Z,18.50
2023-05-25T11:03:56.122Z,18.50
2023-05-25T11:06:44.764Z,18.60
2023-05-25T11:09:28.786Z,18.30
2023-05-25T11:12:01.956Z,18.70
2023-05-25T11:14:31.182Z,18.60
2023-05-25T11:17:15.549Z,18.40
2023-05-25T11:19:54.585Z,18.40
2023-05-25T11:22:24.260Z,18.60
2023-05-25T11:24:53.015Z,18.60
2023-05-25T11:27:24.088Z,18.50
2023-05-25T11:29:56.785Z,18.60
2023-05-25T11:32:26.250Z,18.30
2023-05-25T11:34:54.205Z,18.50
2023-05-25T11:37:22.821Z,18.30
2023-05-25T11:39:53.751Z,18.30
2023-05-25T11:42:22.168Z,18.50
2023-05-25T11:44:49.310Z,18.60
2023-05-25T11:47:22.812Z,18.30
2023-05-25T11:49:50.174Z,18.50
2023-05-25T11:52:19.373Z,18.20
2023-05-25T11:54:46.945Z,18.30
2023-05-25T11:57:22.657Z,18.60
2023-05-25T11:59:51.590Z,18.60
2023-05-25T12:02:19.626Z,18.50
2023-05-25T12:04:58.440Z,18.60
2023-05-25T12:07:26.841Z,19.30
2023-05-25T12:10:08.922Z,19.50
2023-05-25T12:12:52.414Z,19.10
2023-05-25T12:15:24.280Z,19.40
2023-05-25T12:17:52.642Z,19.70
2023-05-25T12:20:20.481Z,19.80
2023-05-25T12:22:47.945Z,19.80
2023-05-25T12:25:18.453Z,19.50
2023-05-25T12:27:45.636Z,19.30
2023-05-25T12:30:12.742Z,19.40
2023-05-25T12:33:01.697Z,19.40
2023-05-25T12:35:30.406Z,19.40
2023-05-25T12:38:14.345Z,19.30
2023-05-25T12:40:42.295Z,19.10
2023-05-25T12:43:11.662Z,19.70
2023-05-25T12:45:42.911Z,19.10
2023-05-25T12:48:10.251Z,19.20
2023-05-25T12:50:39.034Z,19.70
2023-05-25T12:53:06.211Z,19.30
2023-05-25T12:55:35.821Z,19.50
2023-05-25T12:58:07.659Z,19.50
2023-05-25T13:00:39.346Z,19.40
2023-05-25T13:03:07.819Z,19.60
2023-05-25T13:05:36.882Z,19.20
2023-05-25T13:08:05.399Z,19.00
2023-05-25T13:10:33.274Z,19.40
2023-05-25T13:13:00.792Z,19.60
2023-05-25T13:15:28.427Z,19.90
2023-05-25T13:17:58.433Z,19.80
2023-05-25T13:20:26.877Z,20.30
2023-05-25T13:22:55.786Z,20.10
2023-05-25T13:25:23.160Z,20.30
2023-05-25T13:27:52.806Z,20.60
2023-05-25T13:30:22.977Z,20.60
2023-05-25T13:32:51.727Z,20.10
2023-05-25T13:35:24.164Z,19.70
2023-05-25T13:37:51.388Z,19.30
2023-05-25T13:40:19.222Z,19.70
2023-05-25T13:42:46.116Z,19.90
2023-05-25T13:45:13.883Z,20.30
2023-05-25T13:47:43.696Z,20.60
2023-05-25T13:50:11.321Z,20.60
2023-05-25T13:52:38.183Z,20.60
2023-05-25T13:55:05.518Z,20.50
2023-05-25T13:57:32.488Z,21.00
2023-05-25T13:59:59.676Z,21.20
2023-05-25T14:02:26.795Z,21.20
2023-05-25T14:04:53.900Z,20.60
2023-05-25T14:07:20.804Z,20.10
2023-05-25T14:09:47.656Z,20.60
2023-05-25T14:12:14.604Z,20.70
2023-05-25T14:14:41.536Z,20.90
2023-05-25T14:17:08.428Z,20.20
2023-05-25T14:19:35.437Z,20.40
2023-05-25T14:24:32.122Z,20.70
2023-05-25T14:26:59.214Z,21.30
2023-05-25T14:29:26.179Z,21.60
2023-05-25T14:31:53.337Z,21.30
2023-05-25T14:34:20.263Z,20.50
2023-05-25T14:36:47.103Z,20.20
2023-05-25T14:39:16.467Z,20.20
2023-05-25T14:41:44.381Z,19.90
2023-05-25T14:44:11.334Z,19.90
2023-05-25T14:46:38.424Z,20.00
2023-05-25T14:49:05.392Z,20.30
2023-05-25T14:51:32.453Z,20.20
2023-05-25T14:54:01.342Z,20.40
2023-05-25T14:56:28.434Z,20.30
2023-05-25T14:58:55.317Z,20.20
2023-05-25T15:01:25.056Z,20.30
2023-05-25T15:03:52.635Z,20.10
2023-05-25T15:06:19.851Z,20.10
2023-05-25T15:08:46.917Z,20.30
2023-05-25T15:11:13.847Z,20.10
2023-05-25T15:13:41.172Z,20.50
2023-05-25T15:16:11.836Z,20.70
2023-05-25T15:18:38.865Z,20.50
2023-05-25T15:21:06.331Z,20.20
2023-05-25T15:23:33.201Z,20.10
2023-05-25T15:26:04.456Z,20.30
2023-05-25T15:28:31.767Z,20.50
2023-05-25T15:31:02.368Z,20.20
2023-05-25T15:33:48.532Z,20.30
2023-05-25T15:36:19.980Z,20.30
2023-05-25T15:38:49.479Z,20.70
2023-05-25T15:41:17.553Z,21.00
2023-05-25T15:43:58.609Z,20.90
2023-05-25T15:46:25.961Z,20.70
2023-05-25T15:48:53.436Z,20.60
2023-05-25T15:51:22.815Z,20.80
2023-05-25T15:53:49.886Z,20.80
2023-05-25T15:56:16.728Z,20.70
2023-05-25T15:58:47.172Z,20.50
2023-05-25T16:01:14.147Z,20.30
2023-05-25T16:03:45.885Z,20.00
2023-05-25T16:06:13.327Z,20.10
2023-05-25T16:08:40.227Z,20.10
2023-05-25T16:11:17.578Z,20.50
2023-05-25T16:13:47.637Z,20.30
2023-05-25T16:16:14.651Z,19.90
2023-05-25T16:18:41.720Z,19.70
2023-05-25T16:21:12.797Z,19.70
2023-05-25T16:23:42.531Z,19.60
2023-05-25T16:26:12.636Z,19.40
2023-05-25T16:28:40.347Z,19.30
2023-05-25T16:31:07.529Z,19.40
2023-05-25T16:33:39.192Z,19.30
2023-05-25T16:36:09.026Z,19.50
2023-05-25T16:38:35.966Z,19.60
2023-05-25T16:41:02.804Z,19.90
2023-05-25T16:43:30.515Z,20.00
2023-05-25T16:46:00.401Z,19.70
2023-05-25T16:48:28.472Z,19.30
2023-05-25T16:50:55.277Z,19.20
2023-05-25T16:53:22.162Z,19.10
2023-05-25T16:55:49.168Z,19.10
2023-05-25T16:58:16.120Z,19.00
2023-05-25T17:00:43.145Z,19.00
2023-05-25T17:03:10.134Z,19.10
2023-05-25T17:05:37.382Z,19.60
2023-05-25T17:08:04.287Z,20.20
2023-05-25T17:10:31.263Z,20.40
2023-05-25T17:12:58.177Z,20.00
2023-05-25T17:15:25.066Z,19.90
2023-05-25T17:17:51.948Z,19.60
2023-05-25T17:20:18.906Z,19.20
2023-05-25T17:22:47.953Z,19.20
2023-05-25T17:25:14.834Z,19.10
2023-05-25T17:27:41.713Z,19.10
2023-05-25T17:30:09.303Z,19.00
2023-05-25T17:32:42.507Z,19.00
2023-05-25T17:35:09.712Z,18.90
2023-05-25T17:37:36.957Z,18.80
2023-05-25T17:40:04.972Z,18.80
2023-05-25T17:42:31.917Z,18.70
2023-05-25T17:44:58.842Z,18.60
2023-05-25T17:47:26.336Z,18.30
2023-05-25T17:49:53.390Z,18.20
2023-05-25T17:52:20.533Z,18.70
2023-05-25T17:54:47.360Z,19.70
2023-05-25T17:57:16.648Z,19.50
2023-05-25T17:59:45.631Z,19.30
2023-05-25T18:02:12.915Z,19.60
2023-05-25T18:04:41.249Z,19.60
2023-05-25T18:07:08.179Z,19.30
2023-05-25T18:09:35.043Z,19.10
2023-05-25T18:12:02.023Z,18.70
2023-05-25T18:14:32.006Z,18.50
2023-05-25T18:16:58.868Z,18.50
2023-05-25T18:19:26.229Z,18.40
2023-05-25T18:21:53.072Z,18.20
2023-05-25T18:24:19.986Z,18.00
2023-05-25T18:26:47.028Z,17.70
2023-05-25T18:29:13.925Z,17.80
2023-05-25T18:31:45.674Z,17.80
2023-05-25T18:34:13.413Z,18.00
2023-05-25T18:36:40.440Z,17.80
2023-05-25T18:39:07.604Z,17.70
2023-05-25T18:41:34.652Z,17.70
2023-05-25T18:44:01.501Z,17.70
2023-05-25T18:46:29.167Z,17.70
2023-05-25T18:48:56.333Z,17.80
2023-05-25T18:51:25.742Z,17.60
2023-05-25T18:53:53.378Z,17.50
2023-05-25T18:56:20.408Z,17.40
2023-05-25T18:58:48.779Z,17.50
2023-05-25T19:01:17.164Z,17.50
2023-05-25T19:03:44.274Z,17.50
2023-05-25T19:06:11.202Z,17.30
2023-05-25T19:08:37.990Z,17.10
2023-05-25T19:11:04.860Z,17.00
2023-05-25T19:13:31.722Z,17.00
2023-05-25T19:15:58.595Z,16.90
2023-05-25T19:18:25.475Z,16.80
2023-05-25T19:20:52.569Z,16.90
2023-05-25T19:23:19.545Z,16.70
2023-05-25T19:25:46.670Z,16.60
2023-05-25T19:28:14.320Z,16.60
2023-05-25T19:30:41.353Z,16.50
2023-05-25T19:33:08.372Z,16.40
2023-05-25T19:35:35.637Z,16.30
2023-05-25T19:38:02.918Z,16.20
2023-05-25T19:40:29.782Z,16.20
2023-05-25T19:42:56.576Z,16.20
2023-05-25T19:45:23.463Z,16.00
2023-05-25T19:47:50.790Z,16.00
2023-05-25T19:50:17.799Z,15.90
2023-05-25T19:52:45.919Z,15.80
2023-05-25T19:55:12.864Z,15.70
2023-05-25T19:57:39.921Z,15.60
2023-05-25T20:00:11.609Z,15.60
2023-05-25T20:02:48.336Z,15.50
2023-05-25T20:05:15.497Z,15.50
2023-05-25T20:07:43.997Z,15.50
2023-05-25T20:10:10.990Z,15.40
2023-05-25T20:12:38.116Z,15.40
2023-05-25T20:15:05.813Z,15.30
2023-05-25T20:17:32.730Z,15.30
2023-05-25T20:20:00.798Z,15.30
2023-05-25T20:22:28.109Z,15.10
2023-05-25T20:24:58.316Z,15.10
2023-05-25T20:27:25.640Z,14.90
2023-05-25T20:29:52.529Z,14.80
2023-05-25T20:32:19.707Z,14.70
2023-05-25T20:34:46.668Z,14.70
2023-05-25T20:37:13.639Z,14.60
2023-05-25T20:39:40.556Z,14.50
2023-05-25T20:42:07.508Z,14.50
2023-05-25T20:44:34.484Z,14.60
2023-05-25T20:47:01.411Z,14.60
2023-05-25T20:49:28.282Z,14.50
2023-05-25T20:51:55.126Z,14.40
2023-05-25T20:54:22.057Z,14.30
2023-05-25T20:56:51.044Z,14.30
2023-05-25T20:59:18.098Z,14.20
2023-05-25T21:01:44.992Z,14.10
2023-05-25T21:04:12.054Z,14.20
2023-05-25T21:06:38.957Z,14.10
2023-05-25T21:09:06.129Z,14.10
2023-05-25T21:11:33.031Z,14.00
2023-05-25T21:14:00.276Z,14.00
2023-05-25T21:16:27.373Z,14.00
2023-05-25T21:18:54.198Z,14.00
2023-05-25T21:21:21.144Z,13.90
2023-05-25T21:23:47.977Z,13.80
2023-05-25T21:26:15.030Z,13.80
2023-05-25T21:28:42.105Z,13.90
2023-05-25T21:31:09.161Z,13.70
2023-05-25T21:33:37.613Z,13.70
2023-05-25T21:36:04.563Z,13.70
2023-05-25T21:38:31.600Z,13.70
2023-05-25T21:40:59.070Z,13.70
2023-05-25T21:43:28.977Z,13.60
2023-05-25T21:45:56.216Z,13.50
2023-05-25T21:48:23.482Z,13.50
2023-05-25T21:50:53.919Z,13.40
2023-05-25T21:53:21.468Z,13.40
2023-05-25T21:55:48.531Z,13.30
2023-05-25T21:58:19.178Z,13.30
2023-05-25T22:00:46.287Z,13.30
2023-05-25T22:03:13.535Z,13.40
2023-05-25T22:05:40.566Z,13.30
2023-05-25T22:08:07.444Z,13.30
2023-05-25T22:10:34.482Z,13.20
2023-05-25T22:13:02.023Z,13.20
2023-05-25T22:15:28.882Z,13.20
2023-05-25T22:17:56.421Z,13.10
2023-05-25T22:20:23.610Z,13.10
2023-05-25T22:22:50.486Z,13.20
2023-05-25T22:25:17.411Z,13.00
2023-05-25T22:27:44.543Z,13.10
2023-05-25T22:30:11.857Z,13.10
2023-05-25T22:32:38.838Z,13.00
2023-05-25T22:35:06.445Z,13.00
2023-05-25T22:37:33.390Z,12.90
2023-05-25T22:40:01.136Z,12.80
2023-05-25T22:42:28.021Z,12.90
2023-05-25T22:44:57.859Z,12.80
2023-05-25T22:47:24.972Z,12.80
2023-05-25T22:49:52.252Z,12.80
2023-05-25T22:52:19.791Z,12.80
2023-05-25T22:54:46.696Z,12.80
2023-05-25T22:57:13.775Z,12.70
2023-05-25T22:59:40.699Z,12.70
2023-05-25T23:02:08.254Z,12.70
2023-05-25T23:04:38.529Z,12.60
2023-05-25T23:07:05.724Z,12.60
2023-05-25T23:09:32.642Z,12.70
2023-05-25T23:11:59.520Z,12.60
2023-05-25T23:14:28.185Z,12.50
2023-05-25T23:16:55.184Z,12.50
2023-05-25T23:19:23.538Z,12.40
2023-05-25T23:21:50.469Z,12.40
2023-05-25T23:24:17.498Z,12.40
2023-05-25T23:26:44.396Z,12.40
2023-05-25T23:29:11.326Z,12.30
2023-05-25T23:31:38.613Z,12.30
2023-05-25T23:34:05.685Z,12.20
2023-05-25T23:36:33.756Z,12.20
2023-05-25T23:39:00.963Z,12.30
2023-05-25T23:41:28.290Z,12.20
2023-05-25T23:43:55.202Z,12.20
2023-05-25T23:46:22.271Z,12.20
2023-05-25T23:48:49.274Z,12.10
2023-05-25T23:51:16.552Z,12.10
2023-05-25T23:53:43.470Z,12.10
2023-05-25T23:56:10.441Z,12.10
2023-05-25T23:58:37.584Z,12.10
